Time;durP1;ratioP1;P1;durP2;ratioP2;P2;SDS_P1;SDS_P2;PMS_P1;PMS_P2;Temp;Humidity;BMP_temperature;BMP_pressure;BME280_temperature;BME280_humidity;BME280_pressure;Samples;Min_cycle;Max_cycle;Signal;HPM_P1;HPM_P2
2023/07/06 00:02:04;;;;;;;7.90;7.20;;;;;;;;;;5096256;28;20461;-63
2023/07/06 00:04:31;;;;;;;9.70;7.13;;;;;;;;;;5095623;28;20442;-65
2023/07/06 00:06:59;;;;;;;9.60;7.00;;;;;;;;;;5095604;28;20442;-64
2023/07/06 00:09:27;;;;;;;7.97;7.23;;;;;;;;;;5095872;28;20438;-64
2023/07/06 00:11:55;;;;;;;10.47;8.37;;;;;;;;;;5095676;28;20482;-63
2023/07/06 00:14:24;;;;;;;9.40;7.47;;;;;;;;;;5095704;28;20440;-64
2023/07/06 00:17:07;;;;;;;8.10;7.40;;;;;;;;;;5095666;28;20495;-64
2023/07/06 00:19:34;;;;;;;8.77;7.60;;;;;;;;;;5055239;28;20439;-64
2023/07/06 00:22:03;;;;;;;8.67;7.10;;;;;;;;;;5055335;28;20444;-64
2023/07/06 00:24:30;;;;;;;9.70;8.13;;;;;;;;;;5055794;28;20439;-65
2023/07/06 00:26:57;;;;;;;9.77;7.73;;;;;;;;;;5054571;28;20449;-64
2023/07/06 00:29:28;;;;;;;8.70;7.90;;;;;;;;;;5055222;28;20466;-64
2023/07/06 00:32:15;;;;;;;9.40;8.43;;;;;;;;;;5054736;28;20524;-64
2023/07/06 00:34:43;;;;;;;11.80;8.23;;;;;;;;;;5055580;28;20465;-64
2023/07/06 00:37:13;;;;;;;10.60;8.83;;;;;;;;;;5054992;28;20538;-64
2023/07/06 00:39:40;;;;;;;10.03;9.10;;;;;;;;;;5054684;28;20447;-64
2023/07/06 00:42:15;;;;;;;10.00;8.67;;;;;;;;;;5054846;28;20455;-64
2023/07/06 00:44:49;;;;;;;12.17;9.23;;;;;;;;;;5055791;28;20439;-64
2023/07/06 00:47:18;;;;;;;10.23;9.23;;;;;;;;;;5054785;28;20469;-64
2023/07/06 00:49:46;;;;;;;11.20;10.00;;;;;;;;;;5055119;28;20447;-64
2023/07/06 00:52:15;;;;;;;11.80;10.50;;;;;;;;;;5054655;28;20528;-64
2023/07/06 00:54:44;;;;;;;10.93;9.27;;;;;;;;;;5054759;28;20504;-63
2023/07/06 00:57:14;;;;;;;10.23;9.27;;;;;;;;;;5054625;28;20490;-65
2023/07/06 00:59:41;;;;;;;11.93;9.20;;;;;;;;;;5054770;28;20443;-64
2023/07/06 01:02:11;;;;;;;10.63;9.53;;;;;;;;;;5054071;28;20485;-64
2023/07/06 01:04:39;;;;;;;11.43;10.30;;;;;;;;;;5054591;28;20443;-63
2023/07/06 01:07:08;;;;;;;11.60;10.07;;;;;;;;;;5054130;28;20971;-63
2023/07/06 01:09:37;;;;;;;12.73;10.60;;;;;;;;;;5054462;28;20511;-63
2023/07/06 01:12:05;;;;;;;12.90;11.10;;;;;;;;;;5054396;28;20532;-63
2023/07/06 01:14:32;;;;;;;14.37;11.47;;;;;;;;;;5054590;28;20447;-64
2023/07/06 01:17:04;;;;;;;13.60;12.20;;;;;;;;;;5054212;28;20848;-63
2023/07/06 01:19:50;;;;;;;15.60;11.60;;;;;;;;;;5053818;28;20435;-64
2023/07/06 01:22:23;;;;;;;15.30;11.63;;;;;;;;;;5047511;28;20463;-64
2023/07/06 01:25:07;;;;;;;20.97;12.40;;;;;;;;;;5054294;28;20465;-63
2023/07/06 01:27:44;;;;;;;14.90;11.90;;;;;;;;;;5053813;28;20427;-64
2023/07/06 01:30:40;;;;;;;17.07;13.20;;;;;;;;;;5054450;28;20442;-64
2023/07/06 01:33:12;;;;;;;15.17;12.10;;;;;;;;;;5054080;28;20431;-64
2023/07/06 01:35:43;;;;;;;13.40;11.17;;;;;;;;;;5054067;28;20767;-65
2023/07/06 01:38:11;;;;;;;14.93;13.40;;;;;;;;;;5053685;28;20443;-64
2023/07/06 01:40:40;;;;;;;20.07;13.20;;;;;;;;;;5053933;28;20800;-63
2023/07/06 01:43:07;;;;;;;26.13;13.97;;;;;;;;;;5053494;28;20456;-63
2023/07/06 01:45:35;;;;;;;18.40;14.50;;;;;;;;;;5054876;28;20450;-63
2023/07/06 01:48:04;;;;;;;20.20;14.00;;;;;;;;;;5053341;28;20455;-63
2023/07/06 01:50:38;;;;;;;18.87;14.27;;;;;;;;;;5053411;28;20447;-63
2023/07/06 01:53:09;;;;;;;14.23;12.73;;;;;;;;;;5053352;28;20461;-63
2023/07/06 01:55:41;;;;;;;21.27;13.70;;;;;;;;;;5053703;28;20430;-63
2023/07/06 01:58:10;;;;;;;17.93;14.37;;;;;;;;;;5053592;28;20440;-64
2023/07/06 02:00:39;;;;;;;16.20;13.83;;;;;;;;;;5053293;28;20446;-63
2023/07/06 02:03:07;;;;;;;20.70;12.80;;;;;;;;;;5053104;28;20956;-63
2023/07/06 02:05:37;;;;;;;20.00;12.83;;;;;;;;;;5053171;28;20455;-64
2023/07/06 02:08:06;;;;;;;20.50;13.60;;;;;;;;;;5053089;28;20433;-64
2023/07/06 02:10:33;;;;;;;17.13;12.60;;;;;;;;;;5053138;28;20947;-63
2023/07/06 02:13:00;;;;;;;21.63;13.97;;;;;;;;;;5052934;28;20475;-65
2023/07/06 02:15:27;;;;;;;17.20;13.83;;;;;;;;;;5053051;28;20447;-64
2023/07/06 02:17:56;;;;;;;21.27;13.63;;;;;;;;;;5052950;28;20446;-63
2023/07/06 02:20:24;;;;;;;18.10;12.47;;;;;;;;;;5053542;28;20567;-64
2023/07/06 02:22:52;;;;;;;21.83;12.90;;;;;;;;;;5052865;28;20456;-63
2023/07/06 02:25:20;;;;;;;14.93;11.80;;;;;;;;;;5053249;28;20450;-63
2023/07/06 02:27:48;;;;;;;21.07;13.87;;;;;;;;;;5053043;28;20446;-63
2023/07/06 02:30:16;;;;;;;18.93;13.70;;;;;;;;;;5053063;28;20513;-64
2023/07/06 02:32:43;;;;;;;18.80;12.70;;;;;;;;;;5052634;28;20498;-63
2023/07/06 02:35:10;;;;;;;18.57;13.90;;;;;;;;;;5052816;28;20444;-64
2023/07/06 02:37:38;;;;;;;24.80;14.27;;;;;;;;;;5052765;28;20439;-62
2023/07/06 02:40:08;;;;;;;17.53;13.90;;;;;;;;;;5053088;28;20544;-63
2023/07/06 02:42:35;;;;;;;17.23;13.30;;;;;;;;;;5052927;28;20445;-63
2023/07/06 02:45:05;;;;;;;20.43;13.50;;;;;;;;;;5053476;28;20804;-63
2023/07/06 02:47:32;;;;;;;29.77;16.00;;;;;;;;;;5053042;28;20787;-64
2023/07/06 02:49:59;;;;;;;20.03;13.70;;;;;;;;;;5056112;28;20480;-63
2023/07/06 02:52:27;;;;;;;18.40;13.70;;;;;;;;;;5056843;28;20479;-63
2023/07/06 02:54:54;;;;;;;16.07;12.37;;;;;;;;;;5056687;28;20444;-63
2023/07/06 02:57:23;;;;;;;19.77;13.83;;;;;;;;;;5056813;28;20442;-63
2023/07/06 02:59:51;;;;;;;23.27;13.50;;;;;;;;;;5056962;28;20529;-63
2023/07/06 03:02:18;;;;;;;18.30;13.53;;;;;;;;;;5056989;28;20475;-63
2023/07/06 03:04:46;;;;;;;20.13;14.43;;;;;;;;;;5056535;28;20546;-63
2023/07/06 03:07:13;;;;;;;15.63;13.47;;;;;;;;;;5056424;28;20509;-63
2023/07/06 03:09:42;;;;;;;17.13;12.60;;;;;;;;;;5057050;28;20450;-63
2023/07/06 03:12:10;;;;;;;17.40;12.97;;;;;;;;;;5056561;28;20532;-63
2023/07/06 03:14:39;;;;;;;19.60;13.40;;;;;;;;;;5057121;28;20445;-63
2023/07/06 03:17:06;;;;;;;18.07;15.23;;;;;;;;;;5056525;28;20492;-64
2023/07/06 03:19:38;;;;;;;15.50;11.60;;;;;;;;;;5056347;28;20445;-63
2023/07/06 03:22:06;;;;;;;19.67;12.27;;;;;;;;;;5056225;28;20434;-63
2023/07/06 03:24:33;;;;;;;20.00;14.23;;;;;;;;;;5056121;28;20482;-63
2023/07/06 03:27:01;;;;;;;22.43;13.70;;;;;;;;;;5056319;28;20758;-63
2023/07/06 03:29:30;;;;;;;24.13;13.03;;;;;;;;;;5056352;28;20448;-63
2023/07/06 03:32:00;;;;;;;20.07;13.43;;;;;;;;;;5056397;28;20482;-63
2023/07/06 03:34:28;;;;;;;20.47;13.93;;;;;;;;;;5056481;28;20482;-63
2023/07/06 03:36:55;;;;;;;15.23;13.03;;;;;;;;;;5056423;28;20469;-63
2023/07/06 03:39:22;;;;;;;23.40;13.40;;;;;;;;;;5056093;28;20453;-63
2023/07/06 03:41:50;;;;;;;26.13;13.40;;;;;;;;;;5055840;28;20449;-63
2023/07/06 03:44:21;;;;;;;21.40;13.70;;;;;;;;;;5055700;28;20453;-63
2023/07/06 03:46:49;;;;;;;20.67;12.47;;;;;;;;;;5056152;28;20973;-63
2023/07/06 03:49:18;;;;;;;20.90;12.23;;;;;;;;;;5076794;28;20451;-63
2023/07/06 03:51:48;;;;;;;16.73;13.20;;;;;;;;;;5095815;28;20588;-63
2023/07/06 03:54:16;;;;;;;13.53;11.50;;;;;;;;;;5096007;28;20437;-63
2023/07/06 03:56:43;;;;;;;16.63;13.50;;;;;;;;;;5096012;28;20802;-63
2023/07/06 03:59:10;;;;;;;16.80;11.77;;;;;;;;;;5095896;28;20439;-63
2023/07/06 04:01:37;;;;;;;21.13;12.43;;;;;;;;;;5095305;28;20454;-63
2023/07/06 04:04:06;;;;;;;19.43;12.53;;;;;;;;;;5095517;28;20519;-65
2023/07/06 04:06:40;;;;;;;19.70;12.30;;;;;;;;;;5095383;28;21021;-63
2023/07/06 04:09:09;;;;;;;15.00;12.03;;;;;;;;;;5095916;28;20425;-63
2023/07/06 04:11:36;;;;;;;20.70;12.10;;;;;;;;;;5095801;28;20836;-63
2023/07/06 04:14:04;;;;;;;17.20;11.50;;;;;;;;;;5095725;28;20448;-64
2023/07/06 04:16:31;;;;;;;20.47;10.93;;;;;;;;;;5095557;28;20862;-64
2023/07/06 04:18:59;;;;;;;17.10;10.83;;;;;;;;;;5095341;28;20829;-63
2023/07/06 04:21:28;;;;;;;12.47;9.77;;;;;;;;;;5095596;28;20470;-64
2023/07/06 04:23:56;;;;;;;16.20;11.80;;;;;;;;;;5095444;28;20453;-63
2023/07/06 04:26:24;;;;;;;14.70;10.50;;;;;;;;;;5095360;28;20437;-64
2023/07/06 04:28:51;;;;;;;13.00;11.17;;;;;;;;;;5095273;28;20498;-64
2023/07/06 04:31:18;;;;;;;16.53;11.03;;;;;;;;;;5095082;28;20443;-63
2023/07/06 04:33:46;;;;;;;13.23;9.83;;;;;;;;;;5095416;28;20838;-63
2023/07/06 04:36:14;;;;;;;12.97;9.97;;;;;;;;;;5095162;28;20454;-63
2023/07/06 04:38:41;;;;;;;16.13;11.13;;;;;;;;;;5095408;28;20453;-63
2023/07/06 04:41:09;;;;;;;14.87;9.70;;;;;;;;;;5095142;28;20453;-63
2023/07/06 04:43:37;;;;;;;21.17;10.23;;;;;;;;;;5095012;28;20460;-63
2023/07/06 04:46:04;;;;;;;16.03;10.30;;;;;;;;;;5094835;28;20450;-64
2023/07/06 04:48:33;;;;;;;13.77;9.97;;;;;;;;;;5094459;28;21007;-63
2023/07/06 04:51:01;;;;;;;18.57;10.33;;;;;;;;;;5095330;28;20525;-63
2023/07/06 04:53:31;;;;;;;13.23;8.17;;;;;;;;;;5094688;28;20492;-64
2023/07/06 04:56:00;;;;;;;16.17;9.37;;;;;;;;;;5094992;28;20435;-64
2023/07/06 04:58:29;;;;;;;11.70;8.47;;;;;;;;;;5094346;28;20987;-63
2023/07/06 05:00:56;;;;;;;9.23;7.60;;;;;;;;;;5094561;28;20449;-64
2023/07/06 05:03:24;;;;;;;13.13;9.30;;;;;;;;;;5095041;28;20444;-65
2023/07/06 05:05:51;;;;;;;12.70;7.90;;;;;;;;;;5094730;28;20795;-64
2023/07/06 05:08:19;;;;;;;10.63;7.23;;;;;;;;;;5094556;28;20465;-64
2023/07/06 05:10:50;;;;;;;19.97;8.50;;;;;;;;;;5094537;28;20446;-63
2023/07/06 05:13:18;;;;;;;10.37;6.43;;;;;;;;;;5093246;28;20468;-62
2023/07/06 05:15:47;;;;;;;11.50;6.83;;;;;;;;;;5094384;28;20458;-63
2023/07/06 05:18:14;;;;;;;8.10;5.90;;;;;;;;;;5094308;28;20805;-63
2023/07/06 05:20:42;;;;;;;9.63;7.57;;;;;;;;;;5093790;28;20519;-63
2023/07/06 05:23:11;;;;;;;12.87;6.93;;;;;;;;;;5094030;28;20970;-63
2023/07/06 05:25:38;;;;;;;8.93;6.97;;;;;;;;;;5094233;28;20495;-63
2023/07/06 05:28:05;;;;;;;7.50;6.80;;;;;;;;;;5093921;28;20443;-63
2023/07/06 05:30:32;;;;;;;9.37;6.77;;;;;;;;;;5094069;28;20781;-63
2023/07/06 05:33:01;;;;;;;8.43;7.50;;;;;;;;;;5094395;28;20509;-63
2023/07/06 05:35:29;;;;;;;8.60;7.10;;;;;;;;;;5094132;28;20443;-63
2023/07/06 05:37:56;;;;;;;9.73;7.00;;;;;;;;;;5094333;28;20447;-62
2023/07/06 05:40:23;;;;;;;9.70;6.80;;;;;;;;;;5094227;28;20447;-63
2023/07/06 05:42:50;;;;;;;7.70;6.30;;;;;;;;;;5093926;28;20456;-63
2023/07/06 05:45:18;;;;;;;11.80;7.30;;;;;;;;;;5093927;28;20442;-62
2023/07/06 05:47:45;;;;;;;13.70;6.90;;;;;;;;;;5094402;28;20440;-63
2023/07/06 05:50:14;;;;;;;12.37;7.00;;;;;;;;;;5093819;28;20454;-63
2023/07/06 05:52:41;;;;;;;14.60;7.20;;;;;;;;;;5093784;28;20475;-63
2023/07/06 05:55:09;;;;;;;8.80;6.60;;;;;;;;;;5093827;28;20496;-63
2023/07/06 05:57:36;;;;;;;10.10;6.60;;;;;;;;;;5093474;28;20448;-63
2023/07/06 06:00:05;;;;;;;8.50;7.07;;;;;;;;;;5093678;28;20451;-63
2023/07/06 06:02:32;;;;;;;8.13;6.20;;;;;;;;;;5094202;28;20453;-63
2023/07/06 06:05:00;;;;;;;11.37;6.70;;;;;;;;;;5093586;28;20456;-63
2023/07/06 06:07:31;;;;;;;11.10;6.80;;;;;;;;;;5093822;28;20450;-63
2023/07/06 06:09:58;;;;;;;22.07;7.70;;;;;;;;;;5094054;28;20492;-63
2023/07/06 06:12:27;;;;;;;9.40;6.90;;;;;;;;;;5093815;28;20555;-63
2023/07/06 06:14:54;;;;;;;9.73;7.27;;;;;;;;;;5093246;28;20866;-63
2023/07/06 06:17:22;;;;;;;8.20;7.20;;;;;;;;;;5093561;28;20449;-63
2023/07/06 06:19:49;;;;;;;10.00;7.80;;;;;;;;;;5093044;28;20853;-63
2023/07/06 06:22:17;;;;;;;9.43;6.53;;;;;;;;;;5093795;28;20436;-63
2023/07/06 06:24:46;;;;;;;8.20;6.50;;;;;;;;;;5093506;28;20444;-63
2023/07/06 06:27:14;;;;;;;11.37;7.30;;;;;;;;;;5093481;28;20448;-63
2023/07/06 06:29:43;;;;;;;11.93;6.93;;;;;;;;;;5093375;28;20498;-63
2023/07/06 06:32:10;;;;;;;10.10;7.70;;;;;;;;;;5093171;28;20856;-62
2023/07/06 06:34:38;;;;;;;10.73;7.63;;;;;;;;;;5093324;28;20485;-63
2023/07/06 06:37:06;;;;;;;7.47;6.67;;;;;;;;;;5092972;28;20966;-63
2023/07/06 06:39:33;;;;;;;7.30;6.40;;;;;;;;;;5093874;28;20497;-63
2023/07/06 06:42:02;;;;;;;9.83;6.53;;;;;;;;;;5093333;28;20463;-62
2023/07/06 06:44:30;;;;;;;9.63;6.13;;;;;;;;;;5093624;28;20454;-63
2023/07/06 06:46:58;;;;;;;10.07;6.87;;;;;;;;;;5093245;28;20545;-63
2023/07/06 06:49:25;;;;;;;11.03;6.50;;;;;;;;;;5093338;28;20795;-64
2023/07/06 06:51:53;;;;;;;11.50;6.90;;;;;;;;;;5093228;28;20440;-63
2023/07/06 06:54:20;;;;;;;13.60;6.33;;;;;;;;;;5093125;28;20477;-62
2023/07/06 06:56:47;;;;;;;14.83;7.20;;;;;;;;;;5093037;28;20528;-64
2023/07/06 06:59:16;;;;;;;9.80;5.73;;;;;;;;;;5093238;28;20840;-62
2023/07/06 07:01:43;;;;;;;9.47;6.10;;;;;;;;;;5093465;28;20452;-62
2023/07/06 07:04:16;;;;;;;15.73;6.33;;;;;;;;;;5093212;28;20442;-62
2023/07/06 07:06:44;;;;;;;11.93;6.90;;;;;;;;;;5093415;28;20431;-63
2023/07/06 07:09:13;;;;;;;11.97;6.43;;;;;;;;;;5092764;28;20528;-62
2023/07/06 07:11:40;;;;;;;15.47;6.43;;;;;;;;;;5092996;28;20813;-63
2023/07/06 07:14:09;;;;;;;7.90;6.00;;;;;;;;;;5092997;28;20479;-62
2023/07/06 07:16:39;;;;;;;8.93;6.40;;;;;;;;;;5092594;28;20449;-62
2023/07/06 07:19:06;;;;;;;11.77;6.40;;;;;;;;;;5092677;28;20444;-62
2023/07/06 07:21:34;;;;;;;13.77;7.40;;;;;;;;;;5093095;28;20468;-63
2023/07/06 07:24:01;;;;;;;11.73;6.30;;;;;;;;;;5092603;28;20442;-62
2023/07/06 07:26:29;;;;;;;8.47;6.10;;;;;;;;;;5092525;28;20917;-63
2023/07/06 07:28:56;;;;;;;14.73;5.70;;;;;;;;;;5092581;28;20850;-62
2023/07/06 07:31:25;;;;;;;18.93;6.10;;;;;;;;;;5092688;28;20542;-62
2023/07/06 07:33:53;;;;;;;16.77;7.60;;;;;;;;;;5093350;28;20886;-62
2023/07/06 07:36:21;;;;;;;7.90;5.97;;;;;;;;;;5094227;28;20498;-62
2023/07/06 07:38:49;;;;;;;11.90;5.77;;;;;;;;;;5096556;28;20436;-62
2023/07/06 07:41:18;;;;;;;14.13;5.20;;;;;;;;;;5096648;28;20543;-62
2023/07/06 07:43:46;;;;;;;11.23;6.13;;;;;;;;;;5096794;28;20436;-62
2023/07/06 07:46:14;;;;;;;12.80;5.80;;;;;;;;;;5096231;28;20451;-63
2023/07/06 07:48:45;;;;;;;10.23;5.90;;;;;;;;;;5096274;28;20534;-62
2023/07/06 07:51:14;;;;;;;8.27;4.77;;;;;;;;;;5096619;28;20431;-63
2023/07/06 07:53:44;;;;;;;9.13;6.00;;;;;;;;;;5095806;28;20548;-62
2023/07/06 07:56:11;;;;;;;7.97;5.37;;;;;;;;;;5095676;28;20454;-63
2023/07/06 07:58:39;;;;;;;12.03;5.87;;;;;;;;;;5096136;28;20936;-62
2023/07/06 08:01:07;;;;;;;10.53;6.30;;;;;;;;;;5096111;28;20594;-62
2023/07/06 08:03:36;;;;;;;9.40;5.60;;;;;;;;;;5096219;28;20445;-62
2023/07/06 08:06:05;;;;;;;9.40;6.03;;;;;;;;;;5095489;28;20965;-63
2023/07/06 08:08:34;;;;;;;9.20;5.70;;;;;;;;;;5095947;28;20440;-63
2023/07/06 08:11:03;;;;;;;11.30;5.20;;;;;;;;;;5095826;28;20504;-63
2023/07/06 08:13:31;;;;;;;12.70;6.13;;;;;;;;;;5095772;28;20570;-62
2023/07/06 08:15:59;;;;;;;15.53;5.93;;;;;;;;;;5096095;28;20446;-62
2023/07/06 08:18:26;;;;;;;9.50;6.60;;;;;;;;;;5095635;28;20437;-63
2023/07/06 08:20:54;;;;;;;10.07;4.60;;;;;;;;;;5095722;28;21051;-62
2023/07/06 08:23:21;;;;;;;13.37;5.33;;;;;;;;;;5095685;28;20442;-62
2023/07/06 08:25:51;;;;;;;8.03;5.73;;;;;;;;;;5095408;28;20448;-62
2023/07/06 08:28:20;;;;;;;11.93;6.23;;;;;;;;;;5095177;28;20450;-62
2023/07/06 08:30:48;;;;;;;9.67;6.27;;;;;;;;;;5095265;28;20529;-63
2023/07/06 08:33:16;;;;;;;10.00;4.90;;;;;;;;;;5094719;28;20623;-63
2023/07/06 08:35:43;;;;;;;10.30;5.17;;;;;;;;;;5095417;28;20447;-62
2023/07/06 08:38:10;;;;;;;14.00;5.70;;;;;;;;;;5095285;28;20438;-62
2023/07/06 08:40:38;;;;;;;9.50;5.70;;;;;;;;;;5095395;28;20438;-62
2023/07/06 08:43:08;;;;;;;9.67;5.47;;;;;;;;;;5094868;28;20455;-62
2023/07/06 08:45:39;;;;;;;10.17;4.43;;;;;;;;;;5094885;28;20966;-62
2023/07/06 08:48:07;;;;;;;10.67;4.73;;;;;;;;;;5094946;28;20438;-63
2023/07/06 08:50:36;;;;;;;8.50;4.43;;;;;;;;;;5094777;28;20441;-62
2023/07/06 08:53:05;;;;;;;9.30;4.50;;;;;;;;;;5094914;28;20785;-63
2023/07/06 08:55:33;;;;;;;14.27;5.30;;;;;;;;;;5094688;28;20533;-63
2023/07/06 08:58:03;;;;;;;7.90;4.07;;;;;;;;;;5094540;28;20536;-62
2023/07/06 09:00:35;;;;;;;4.10;3.70;;;;;;;;;;5094850;28;20465;-62
2023/07/06 09:03:06;;;;;;;12.73;4.37;;;;;;;;;;5094547;28;20434;-63
2023/07/06 09:05:38;;;;;;;11.50;4.53;;;;;;;;;;5095733;28;20442;-62
2023/07/06 09:08:06;;;;;;;7.23;4.10;;;;;;;;;;5095021;28;20438;-63
2023/07/06 09:10:34;;;;;;;7.00;4.00;;;;;;;;;;5094602;28;20442;-62
2023/07/06 09:13:13;;;;;;;8.83;4.30;;;;;;;;;;5094077;28;20516;-62
2023/07/06 09:15:44;;;;;;;9.73;4.57;;;;;;;;;;5095281;28;20848;-62
2023/07/06 09:18:14;;;;;;;7.17;3.90;;;;;;;;;;5094698;28;20493;-62
2023/07/06 09:20:42;;;;;;;8.30;3.80;;;;;;;;;;5094612;28;20478;-62
2023/07/06 09:23:13;;;;;;;8.13;3.83;;;;;;;;;;5094394;28;20446;-62
2023/07/06 09:25:42;;;;;;;5.43;3.73;;;;;;;;;;5094572;28;20521;-62
2023/07/06 09:28:16;;;;;;;6.73;4.00;;;;;;;;;;5094391;28;20453;-62
2023/07/06 09:30:45;;;;;;;14.10;4.60;;;;;;;;;;5094576;28;20547;-62
2023/07/06 09:33:19;;;;;;;9.03;4.50;;;;;;;;;;5094274;28;20785;-63
2023/07/06 09:35:47;;;;;;;14.10;4.53;;;;;;;;;;5094185;28;20491;-62
2023/07/06 09:38:15;;;;;;;6.50;4.00;;;;;;;;;;5094073;28;20446;-62
2023/07/06 09:40:43;;;;;;;8.00;4.70;;;;;;;;;;5093857;28;20436;-63
2023/07/06 09:43:17;;;;;;;11.27;3.87;;;;;;;;;;5094064;28;20455;-63
2023/07/06 09:45:48;;;;;;;11.83;4.30;;;;;;;;;;5094104;28;20444;-62
2023/07/06 09:48:23;;;;;;;9.60;4.07;;;;;;;;;;5093625;28;20431;-62
2023/07/06 09:50:52;;;;;;;7.27;4.03;;;;;;;;;;5093764;28;20443;-62
2023/07/06 09:53:23;;;;;;;5.00;4.33;;;;;;;;;;5093906;28;20447;-63
2023/07/06 09:55:51;;;;;;;7.40;3.73;;;;;;;;;;5094212;28;20431;-62
2023/07/06 09:58:21;;;;;;;7.97;3.80;;;;;;;;;;5092904;28;20447;-62
2023/07/06 10:00:53;;;;;;;6.07;3.77;;;;;;;;;;5093895;28;20782;-62
2023/07/06 10:03:26;;;;;;;7.10;4.20;;;;;;;;;;5093839;28;20436;-63
2023/07/06 10:05:57;;;;;;;8.73;4.00;;;;;;;;;;5093847;28;20917;-62
2023/07/06 10:08:27;;;;;;;6.33;4.50;;;;;;;;;;5094153;28;20441;-62
2023/07/06 10:11:05;;;;;;;5.97;3.60;;;;;;;;;;5093430;28;20470;-63
2023/07/06 10:13:37;;;;;;;6.10;3.87;;;;;;;;;;5093234;28;20460;-62
2023/07/06 10:16:11;;;;;;;5.67;3.67;;;;;;;;;;5093973;28;20427;-63
2023/07/06 10:18:40;;;;;;;6.93;4.80;;;;;;;;;;5093666;28;20492;-62
2023/07/06 10:21:14;;;;;;;9.40;4.53;;;;;;;;;;5093145;28;20476;-62
2023/07/06 10:23:45;;;;;;;6.37;3.33;;;;;;;;;;5093536;28;20500;-62
2023/07/06 10:26:14;;;;;;;4.90;3.50;;;;;;;;;;5093602;28;20432;-63
2023/07/06 10:28:43;;;;;;;7.20;4.47;;;;;;;;;;5093666;28;20439;-62
2023/07/06 10:31:16;;;;;;;8.97;4.50;;;;;;;;;;5093114;28;20450;-63
2023/07/06 10:33:45;;;;;;;8.40;4.73;;;;;;;;;;5092904;28;20909;-63
2023/07/06 10:36:13;;;;;;;6.97;3.93;;;;;;;;;;5093550;28;20439;-62
2023/07/06 10:38:41;;;;;;;11.43;4.97;;;;;;;;;;5092917;28;20444;-63
2023/07/06 10:41:22;;;;;;;7.17;3.60;;;;;;;;;;5093378;28;20520;-63
2023/07/06 10:43:51;;;;;;;8.30;3.90;;;;;;;;;;5092970;28;20490;-62
2023/07/06 10:46:31;;;;;;;5.30;4.37;;;;;;;;;;5093347;28;20460;-62
2023/07/06 10:48:59;;;;;;;7.90;4.87;;;;;;;;;;5093553;28;20488;-62
2023/07/06 10:51:27;;;;;;;7.77;4.23;;;;;;;;;;5093701;28;20443;-62
2023/07/06 10:54:06;;;;;;;5.10;4.60;;;;;;;;;;5093107;28;20441;-63
2023/07/06 10:56:36;;;;;;;7.50;4.27;;;;;;;;;;5093001;28;20913;-63
2023/07/06 10:59:03;;;;;;;5.40;3.30;;;;;;;;;;5093405;28;20438;-62
2023/07/06 11:01:34;;;;;;;7.83;4.23;;;;;;;;;;5092781;28;20529;-63
2023/07/06 11:04:02;;;;;;;7.50;4.40;;;;;;;;;;5092812;28;20431;-63
2023/07/06 11:07:03;;;;;;;5.97;3.33;;;;;;;;;;5093179;28;20473;-63
2023/07/06 11:09:47;;;;;;;10.60;4.30;;;;;;;;;;5030638;28;20434;-62
2023/07/06 11:12:19;;;;;;;9.40;4.77;;;;;;;;;;5034323;28;20458;-62
2023/07/06 11:14:48;;;;;;;8.70;4.23;;;;;;;;;;5071895;28;20481;-62
2023/07/06 11:17:28;;;;;;;4.57;3.40;;;;;;;;;;5097093;28;20443;-63
2023/07/06 11:19:58;;;;;;;4.80;3.03;;;;;;;;;;5096690;28;20470;-62
2023/07/06 11:22:26;;;;;;;5.67;3.07;;;;;;;;;;5096950;28;20423;-62
2023/07/06 11:24:54;;;;;;;4.80;2.87;;;;;;;;;;5096392;28;20443;-63
2023/07/06 11:27:24;;;;;;;6.57;3.47;;;;;;;;;;5096394;28;20478;-62
2023/07/06 11:29:54;;;;;;;10.93;2.93;;;;;;;;;;5096463;28;20823;-65
2023/07/06 11:32:28;;;;;;;4.70;3.00;;;;;;;;;;5096975;28;20546;-62
2023/07/06 11:35:07;;;;;;;5.23;3.20;;;;;;;;;;5096477;28;20559;-63
2023/07/06 11:37:40;;;;;;;3.60;2.50;;;;;;;;;;5096686;28;20425;-62
2023/07/06 11:40:17;;;;;;;4.23;2.87;;;;;;;;;;5096603;28;20420;-63
2023/07/06 11:42:51;;;;;;;4.17;2.27;;;;;;;;;;5096866;28;20447;-63
2023/07/06 11:45:22;;;;;;;4.50;2.30;;;;;;;;;;5096664;28;20435;-63
2023/07/06 11:47:54;;;;;;;4.57;2.40;;;;;;;;;;5096685;28;20427;-64
2023/07/06 11:50:23;;;;;;;3.33;2.63;;;;;;;;;;5096541;28;20436;-62
2023/07/06 11:52:58;;;;;;;5.13;2.90;;;;;;;;;;5091418;28;20478;-63
2023/07/06 11:55:31;;;;;;;5.10;2.90;;;;;;;;;;5090634;28;20512;-63
2023/07/06 11:58:07;;;;;;;5.03;3.03;;;;;;;;;;5096027;28;20510;-63
2023/07/06 12:00:48;;;;;;;4.13;2.83;;;;;;;;;;5095541;28;20496;-63
2023/07/06 12:03:15;;;;;;;4.50;2.63;;;;;;;;;;5096326;28;20432;-63
2023/07/06 12:05:47;;;;;;;3.20;2.70;;;;;;;;;;5095769;28;20450;-63
2023/07/06 12:08:16;;;;;;;4.40;2.40;;;;;;;;;;5096056;28;20535;-63
2023/07/06 12:10:45;;;;;;;9.03;3.07;;;;;;;;;;5095363;28;20441;-63
2023/07/06 12:13:15;;;;;;;4.53;2.63;;;;;;;;;;5095740;28;20440;-63
2023/07/06 12:15:43;;;;;;;5.27;2.30;;;;;;;;;;5095573;28;20567;-64
2023/07/06 12:18:14;;;;;;;4.20;2.67;;;;;;;;;;5095550;28;20448;-63
2023/07/06 12:20:41;;;;;;;4.93;2.63;;;;;;;;;;5095179;28;20469;-63
2023/07/06 12:23:12;;;;;;;3.47;3.00;;;;;;;;;;5095099;28;20525;-63
2023/07/06 12:25:41;;;;;;;3.63;2.80;;;;;;;;;;5094882;28;21038;-63
2023/07/06 12:28:11;;;;;;;5.27;2.60;;;;;;;;;;5095273;28;20445;-63
2023/07/06 12:30:39;;;;;;;6.40;2.70;;;;;;;;;;5095037;28;20440;-63
2023/07/06 12:33:08;;;;;;;3.57;2.77;;;;;;;;;;5095209;28;20505;-63
2023/07/06 12:35:36;;;;;;;3.83;2.73;;;;;;;;;;5095303;28;20568;-63
2023/07/06 12:38:09;;;;;;;3.77;2.40;;;;;;;;;;5095060;28;20450;-63
2023/07/06 12:40:38;;;;;;;5.13;3.07;;;;;;;;;;5094939;28;20435;-62
2023/07/06 12:43:05;;;;;;;2.83;2.63;;;;;;;;;;5095169;28;20982;-63
2023/07/06 12:45:33;;;;;;;3.40;2.93;;;;;;;;;;5094531;28;20441;-63
2023/07/06 12:48:03;;;;;;;4.53;3.27;;;;;;;;;;5094854;28;20446;-63
2023/07/06 12:50:35;;;;;;;3.33;2.30;;;;;;;;;;5094526;28;20451;-63
2023/07/06 12:53:05;;;;;;;4.97;2.60;;;;;;;;;;5095049;28;20425;-63
2023/07/06 12:55:32;;;;;;;5.73;2.73;;;;;;;;;;5094431;28;20635;-63
2023/07/06 13:01:01;;;;;;;3.47;2.63;;;;;;;;;;5152405;27;20535;-64
2023/07/06 13:03:28;;;;;;;3.00;2.23;;;;;;;;;;5152371;27;20515;-63
2023/07/06 13:05:56;;;;;;;4.03;2.50;;;;;;;;;;5151880;27;20441;-63
2023/07/06 13:08:23;;;;;;;4.20;3.00;;;;;;;;;;5151898;27;20438;-63
2023/07/06 13:11:00;;;;;;;3.43;2.20;;;;;;;;;;5151886;27;20857;-62
2023/07/06 13:13:27;;;;;;;5.53;3.07;;;;;;;;;;5152294;27;20446;-62
2023/07/06 13:16:01;;;;;;;6.60;3.07;;;;;;;;;;5151955;27;20439;-62
2023/07/06 13:18:29;;;;;;;8.63;2.67;;;;;;;;;;5151529;27;20418;-62
2023/07/06 13:20:57;;;;;;;8.03;2.60;;;;;;;;;;5151677;27;20524;-63
2023/07/06 13:23:27;;;;;;;3.77;2.27;;;;;;;;;;5151502;27;20805;-63
2023/07/06 13:25:55;;;;;;;4.80;2.20;;;;;;;;;;5152246;27;20472;-63
2023/07/06 13:28:23;;;;;;;3.53;2.90;;;;;;;;;;5151231;27;20488;-62
2023/07/06 13:30:50;;;;;;;3.87;2.70;;;;;;;;;;5151818;27;20527;-63
2023/07/06 13:33:19;;;;;;;4.00;2.47;;;;;;;;;;5151243;27;20433;-62
2023/07/06 13:35:47;;;;;;;4.27;3.10;;;;;;;;;;5151605;27;20441;-63
2023/07/06 13:38:14;;;;;;;3.63;2.47;;;;;;;;;;5151446;27;20445;-63
2023/07/06 13:40:42;;;;;;;9.53;3.40;;;;;;;;;;5151228;27;20867;-63
2023/07/06 13:43:13;;;;;;;2.73;2.53;;;;;;;;;;5151122;27;20439;-63
2023/07/06 13:45:40;;;;;;;4.83;2.23;;;;;;;;;;5151284;27;20435;-63
2023/07/06 13:48:08;;;;;;;3.70;2.20;;;;;;;;;;5151358;27;20530;-63
2023/07/06 13:50:37;;;;;;;2.50;2.30;;;;;;;;;;5150993;27;20448;-63
2023/07/06 13:53:07;;;;;;;4.43;2.50;;;;;;;;;;5151842;27;20458;-62
2023/07/06 13:55:38;;;;;;;3.10;2.47;;;;;;;;;;5151034;27;20448;-63
2023/07/06 13:58:06;;;;;;;5.43;2.23;;;;;;;;;;5150805;27;20901;-62
2023/07/06 14:00:33;;;;;;;4.60;2.50;;;;;;;;;;5151113;27;20470;-62
2023/07/06 14:03:00;;;;;;;2.87;2.10;;;;;;;;;;5150880;27;20411;-62
2023/07/06 14:05:28;;;;;;;4.50;2.37;;;;;;;;;;5150874;27;20439;-63
2023/07/06 14:07:56;;;;;;;2.67;2.47;;;;;;;;;;5150793;27;20524;-63
2023/07/06 14:10:23;;;;;;;3.13;2.27;;;;;;;;;;5147705;27;20443;-63
2023/07/06 14:12:52;;;;;;;5.73;2.50;;;;;;;;;;5136957;27;20451;-63
2023/07/06 14:15:19;;;;;;;2.20;2.00;;;;;;;;;;5135733;27;20527;-63
2023/07/06 14:17:47;;;;;;;4.60;2.70;;;;;;;;;;5136206;27;20937;-63
2023/07/06 14:20:16;;;;;;;6.33;2.70;;;;;;;;;;5136438;27;20977;-63
2023/07/06 14:22:43;;;;;;;4.50;2.53;;;;;;;;;;5136352;27;20446;-63
2023/07/06 14:25:15;;;;;;;4.17;3.30;;;;;;;;;;5136914;27;20534;-63
2023/07/06 14:27:42;;;;;;;2.80;2.17;;;;;;;;;;5136573;27;20440;-63
2023/07/06 14:30:10;;;;;;;4.40;2.50;;;;;;;;;;5136207;27;20463;-63
2023/07/06 14:32:37;;;;;;;3.00;1.97;;;;;;;;;;5136567;27;20547;-63
2023/07/06 14:35:05;;;;;;;1.90;1.67;;;;;;;;;;5136538;27;20490;-63
2023/07/06 14:37:32;;;;;;;3.73;1.97;;;;;;;;;;5136331;27;20443;-63
2023/07/06 14:40:00;;;;;;;2.40;2.07;;;;;;;;;;5136863;27;20481;-63
2023/07/06 14:42:28;;;;;;;3.50;2.53;;;;;;;;;;5136277;27;20442;-63
2023/07/06 14:44:55;;;;;;;4.93;2.20;;;;;;;;;;5136374;27;20429;-63
2023/07/06 14:47:23;;;;;;;5.07;2.00;;;;;;;;;;5135948;27;21019;-62
2023/07/06 14:49:50;;;;;;;2.30;2.10;;;;;;;;;;5136221;27;20769;-63